sensor_id;sensor_type;location;lat;lon;timestamp;temperature;humidity
28773;DHT22;15925;51.222;5.678;2022-12-31T00:01:28;13.30;99.90
28773;DHT22;15925;51.222;5.678;2022-12-31T00:03:54;13.30;99.90
28773;DHT22;15925;51.222;5.678;2022-12-31T00:08:46;13.40;99.90
28773;DHT22;15925;51.222;5.678;2022-12-31T00:11:13;13.30;99.90
28773;DHT22;15925;51.222;5.678;2022-12-31T00:13:38;13.40;99.90
28773;DHT22;15925;51.222;5.678;2022-12-31T00:16:05;13.40;99.90
28773;DHT22;15925;51.222;5.678;2022-12-31T00:18:31;13.40;99.90
28773;DHT22;15925;51.222;5.678;2022-12-31T00:20:56;13.40;99.90
28773;DHT22;15925;51.222;5.678;2022-12-31T00:23:22;13.40;99.90
28773;DHT22;15925;51.222;5.678;2022-12-31T00:25:48;13.40;99.90
28773;DHT22;15925;51.222;5.678;2022-12-31T00:28:14;13.40;99.90
28773;DHT22;15925;51.222;5.678;2022-12-31T00:30:39;13.40;99.90
28773;DHT22;15925;51.222;5.678;2022-12-31T00:33:05;13.40;99.90
28773;DHT22;15925;51.222;5.678;2022-12-31T00:35:31;13.40;99.90
28773;DHT22;15925;51.222;5.678;2022-12-31T00:37:59;13.40;99.90
28773;DHT22;15925;51.222;5.678;2022-12-31T00:40:24;13.50;99.90
28773;DHT22;15925;51.222;5.678;2022-12-31T00:42:50;13.50;99.90
28773;DHT22;15925;51.222;5.678;2022-12-31T00:45:15;13.50;99.90
28773;DHT22;15925;51.222;5.678;2022-12-31T00:47:41;13.50;99.90
28773;DHT22;15925;51.222;5.678;2022-12-31T00:50:07;13.50;99.90
28773;DHT22;15925;51.222;5.678;2022-12-31T00:52:35;13.50;99.90
28773;DHT22;15925;51.222;5.678;2022-12-31T00:55:01;13.60;99.90
28773;DHT22;15925;51.222;5.678;2022-12-31T00:57:26;13.60;99.90
28773;DHT22;15925;51.222;5.678;2022-12-31T00:59:52;13.60;99.90
28773;DHT22;15925;51.222;5.678;2022-12-31T01:02:18;13.60;99.90
28773;DHT22;15925;51.222;5.678;2022-12-31T01:04:43;13.60;99.90
28773;DHT22;15925;51.222;5.678;2022-12-31T01:07:09;13.60;99.90
28773;DHT22;15925;51.222;5.678;2022-12-31T01:09:35;13.60;99.90
28773;DHT22;15925;51.222;5.678;2022-12-31T01:12:04;13.70;99.90
28773;DHT22;15925;51.222;5.678;2022-12-31T01:14:34;13.70;99.90
28773;DHT22;15925;51.222;5.678;2022-12-31T01:17:00;13.70;99.90
28773;DHT22;15925;51.222;5.678;2022-12-31T01:19:26;13.70;99.90
28773;DHT22;15925;51.222;5.678;2022-12-31T01:21:52;13.70;99.90
28773;DHT22;15925;51.222;5.678;2022-12-31T01:24:18;13.70;99.90
28773;DHT22;15925;51.222;5.678;2022-12-31T01:26:44;13.70;99.90
28773;DHT22;15925;51.222;5.678;2022-12-31T01:29:10;13.80;99.90
28773;DHT22;15925;51.222;5.678;2022-12-31T01:31:36;13.80;99.90
28773;DHT22;15925;51.222;5.678;2022-12-31T01:34:02;13.80;99.90
28773;DHT22;15925;51.222;5.678;2022-12-31T01:36:30;13.80;99.90
28773;DHT22;15925;51.222;5.678;2022-12-31T01:38:56;13.80;99.90
28773;DHT22;15925;51.222;5.678;2022-12-31T01:41:24;13.90;99.90
28773;DHT22;15925;51.222;5.678;2022-12-31T01:46:22;13.90;99.90
28773;DHT22;15925;51.222;5.678;2022-12-31T01:48:49;14.00;99.90
28773;DHT22;15925;51.222;5.678;2022-12-31T01:51:16;13.90;99.90
28773;DHT22;15925;51.222;5.678;2022-12-31T01:53:42;13.90;99.90
28773;DHT22;15925;51.222;5.678;2022-12-31T01:56:07;14.00;99.90
28773;DHT22;15925;51.222;5.678;2022-12-31T01:58:35;13.90;99.90
28773;DHT22;15925;51.222;5.678;2022-12-31T02:01:03;14.00;99.90
28773;DHT22;15925;51.222;5.678;2022-12-31T02:03:31;14.00;99.90
28773;DHT22;15925;51.222;5.678;2022-12-31T02:06:02;14.00;99.90
28773;DHT22;15925;51.222;5.678;2022-12-31T02:08:29;14.00;99.90
28773;DHT22;15925;51.222;5.678;2022-12-31T02:10:55;14.00;99.90
28773;DHT22;15925;51.222;5.678;2022-12-31T02:13:21;14.10;99.90
28773;DHT22;15925;51.222;5.678;2022-12-31T02:15:50;14.10;99.90
28773;DHT22;15925;51.222;5.678;2022-12-31T02:18:20;14.10;99.90
28773;DHT22;15925;51.222;5.678;2022-12-31T02:31:06;14.20;99.90
28773;DHT22;15925;51.222;5.678;2022-12-31T02:33:35;14.20;99.90
28773;DHT22;15925;51.222;5.678;2022-12-31T02:36:06;14.20;99.90
28773;DHT22;15925;51.222;5.678;2022-12-31T02:38:36;14.10;99.90
28773;DHT22;15925;51.222;5.678;2022-12-31T02:41:03;14.10;99.90
28773;DHT22;15925;51.222;5.678;2022-12-31T02:43:29;14.00;99.90
28773;DHT22;15925;51.222;5.678;2022-12-31T02:48:39;13.90;99.90
28773;DHT22;15925;51.222;5.678;2022-12-31T02:53:51;13.90;99.90
28773;DHT22;15925;51.222;5.678;2022-12-31T02:56:44;13.80;99.90
28773;DHT22;15925;51.222;5.678;2022-12-31T03:02:16;13.70;99.90
28773;DHT22;15925;51.222;5.678;2022-12-31T03:04:54;13.70;99.90
28773;DHT22;15925;51.222;5.678;2022-12-31T03:07:23;13.70;99.90
28773;DHT22;15925;51.222;5.678;2022-12-31T03:09:49;13.80;99.90
28773;DHT22;15925;51.222;5.678;2022-12-31T03:12:15;13.80;99.90
28773;DHT22;15925;51.222;5.678;2022-12-31T03:15:00;13.80;99.90
28773;DHT22;15925;51.222;5.678;2022-12-31T03:17:26;13.80;99.90
28773;DHT22;15925;51.222;5.678;2022-12-31T03:19:52;13.90;99.90
28773;DHT22;15925;51.222;5.678;2022-12-31T03:22:37;13.90;99.90
28773;DHT22;15925;51.222;5.678;2022-12-31T03:25:12;14.00;99.90
28773;DHT22;15925;51.222;5.678;2022-12-31T03:27:56;14.00;99.90
28773;DHT22;15925;51.222;5.678;2022-12-31T03:30:23;14.00;99.90
28773;DHT22;15925;51.222;5.678;2022-12-31T03:32:49;14.00;99.90
28773;DHT22;15925;51.222;5.678;2022-12-31T03:35:15;14.10;99.90
28773;DHT22;15925;51.222;5.678;2022-12-31T03:37:41;14.10;99.90
28773;DHT22;15925;51.222;5.678;2022-12-31T03:40:08;14.20;99.90
28773;DHT22;15925;51.222;5.678;2022-12-31T03:42:34;14.20;99.90
28773;DHT22;15925;51.222;5.678;2022-12-31T03:45:00;14.20;99.90
28773;DHT22;15925;51.222;5.678;2022-12-31T03:47:26;14.20;99.90
28773;DHT22;15925;51.222;5.678;2022-12-31T03:49:52;14.20;99.90
28773;DHT22;15925;51.222;5.678;2022-12-31T03:52:17;14.20;99.90
28773;DHT22;15925;51.222;5.678;2022-12-31T03:54:43;14.20;99.90
28773;DHT22;15925;51.222;5.678;2022-12-31T03:57:08;14.20;99.90
28773;DHT22;15925;51.222;5.678;2022-12-31T03:59:35;14.20;99.90
28773;DHT22;15925;51.222;5.678;2022-12-31T04:02:00;14.20;99.90
28773;DHT22;15925;51.222;5.678;2022-12-31T04:04:26;14.20;99.90
28773;DHT22;15925;51.222;5.678;2022-12-31T04:06:52;14.20;99.90
28773;DHT22;15925;51.222;5.678;2022-12-31T04:09:18;14.20;99.90
28773;DHT22;15925;51.222;5.678;2022-12-31T04:11:43;14.20;99.90
28773;DHT22;15925;51.222;5.678;2022-12-31T04:14:09;14.30;99.90
28773;DHT22;15925;51.222;5.678;2022-12-31T04:16:36;14.30;99.90
28773;DHT22;15925;51.222;5.678;2022-12-31T04:19:03;14.30;99.90
28773;DHT22;15925;51.222;5.678;2022-12-31T04:21:29;14.40;99.90
28773;DHT22;15925;51.222;5.678;2022-12-31T04:23:57;14.40;99.90
28773;DHT22;15925;51.222;5.678;2022-12-31T04:26:23;14.40;99.90
28773;DHT22;15925;51.222;5.678;2022-12-31T04:28:48;14.50;99.90
28773;DHT22;15925;51.222;5.678;2022-12-31T04:31:14;14.40;99.90
28773;DHT22;15925;51.222;5.678;2022-12-31T04:33:40;14.50;99.90
28773;DHT22;15925;51.222;5.678;2022-12-31T04:36:06;14.50;99.90
28773;DHT22;15925;51.222;5.678;2022-12-31T04:38:33;14.50;99.90
28773;DHT22;15925;51.222;5.678;2022-12-31T04:40:58;14.60;99.90
28773;DHT22;15925;51.222;5.678;2022-12-31T04:43:52;14.60;99.90
28773;DHT22;15925;51.222;5.678;2022-12-31T04:46:23;14.60;99.90
28773;DHT22;15925;51.222;5.678;2022-12-31T04:48:49;14.60;99.90
28773;DHT22;15925;51.222;5.678;2022-12-31T04:51:15;14.70;99.90
28773;DHT22;15925;51.222;5.678;2022-12-31T04:53:40;14.70;99.90
28773;DHT22;15925;51.222;5.678;2022-12-31T04:56:14;14.80;99.90
28773;DHT22;15925;51.222;5.678;2022-12-31T04:58:43;14.80;99.90
28773;DHT22;15925;51.222;5.678;2022-12-31T05:01:09;14.80;99.90
28773;DHT22;15925;51.222;5.678;2022-12-31T05:03:37;14.90;99.90
28773;DHT22;15925;51.222;5.678;2022-12-31T05:06:04;14.80;99.90
28773;DHT22;15925;51.222;5.678;2022-12-31T05:08:30;14.80;99.90
28773;DHT22;15925;51.222;5.678;2022-12-31T05:10:55;14.90;99.90
28773;DHT22;15925;51.222;5.678;2022-12-31T05:13:24;14.90;99.90
28773;DHT22;15925;51.222;5.678;2022-12-31T05:15:50;15.00;99.90
28773;DHT22;15925;51.222;5.678;2022-12-31T05:18:16;15.00;99.90
28773;DHT22;15925;51.222;5.678;2022-12-31T05:20:41;15.00;99.90
28773;DHT22;15925;51.222;5.678;2022-12-31T05:23:07;14.90;99.90
28773;DHT22;15925;51.222;5.678;2022-12-31T05:25:33;14.90;99.90
28773;DHT22;15925;51.222;5.678;2022-12-31T05:28:01;14.80;99.90
28773;DHT22;15925;51.222;5.678;2022-12-31T05:30:27;14.80;99.90
28773;DHT22;15925;51.222;5.678;2022-12-31T05:32:53;14.80;99.90
28773;DHT22;15925;51.222;5.678;2022-12-31T05:35:19;14.80;99.90
28773;DHT22;15925;51.222;5.678;2022-12-31T05:37:46;14.80;99.90
28773;DHT22;15925;51.222;5.678;2022-12-31T05:40:12;14.80;99.90
28773;DHT22;15925;51.222;5.678;2022-12-31T05:42:38;14.80;99.90
28773;DHT22;15925;51.222;5.678;2022-12-31T05:45:06;14.90;99.90
28773;DHT22;15925;51.222;5.678;2022-12-31T05:47:32;14.80;99.90
28773;DHT22;15925;51.222;5.678;2022-12-31T05:49:57;14.90;99.90
28773;DHT22;15925;51.222;5.678;2022-12-31T05:52:23;14.90;99.90
28773;DHT22;15925;51.222;5.678;2022-12-31T05:54:50;14.90;99.90
28773;DHT22;15925;51.222;5.678;2022-12-31T05:57:16;14.90;99.90
28773;DHT22;15925;51.222;5.678;2022-12-31T05:59:42;15.00;99.90
28773;DHT22;15925;51.222;5.678;2022-12-31T06:02:07;15.10;99.90
28773;DHT22;15925;51.222;5.678;2022-12-31T06:04:33;15.10;99.90
28773;DHT22;15925;51.222;5.678;2022-12-31T06:06:59;15.10;99.90
28773;DHT22;15925;51.222;5.678;2022-12-31T06:09:24;15.10;99.90
28773;DHT22;15925;51.222;5.678;2022-12-31T06:11:50;15.20;99.90
28773;DHT22;15925;51.222;5.678;2022-12-31T06:14:19;15.20;99.90
28773;DHT22;15925;51.222;5.678;2022-12-31T06:16:44;15.20;99.90
28773;DHT22;15925;51.222;5.678;2022-12-31T06:19:10;15.20;99.90
28773;DHT22;15925;51.222;5.678;2022-12-31T06:21:36;15.20;99.90
28773;DHT22;15925;51.222;5.678;2022-12-31T06:24:04;15.20;99.90
28773;DHT22;15925;51.222;5.678;2022-12-31T06:26:29;15.20;99.90
28773;DHT22;15925;51.222;5.678;2022-12-31T06:28:55;15.30;99.90
28773;DHT22;15925;51.222;5.678;2022-12-31T06:31:21;15.30;99.90
28773;DHT22;15925;51.222;5.678;2022-12-31T06:33:47;15.30;99.90
28773;DHT22;15925;51.222;5.678;2022-12-31T06:36:13;15.30;99.90
28773;DHT22;15925;51.222;5.678;2022-12-31T06:38:40;15.30;99.90
28773;DHT22;15925;51.222;5.678;2022-12-31T06:41:06;15.30;99.90
28773;DHT22;15925;51.222;5.678;2022-12-31T06:43:33;15.30;99.90
28773;DHT22;15925;51.222;5.678;2022-12-31T06:46:09;15.30;99.90
28773;DHT22;15925;51.222;5.678;2022-12-31T06:48:35;15.40;99.90
28773;DHT22;15925;51.222;5.678;2022-12-31T06:51:06;15.40;99.90
28773;DHT22;15925;51.222;5.678;2022-12-31T06:53:32;15.40;99.90
28773;DHT22;15925;51.222;5.678;2022-12-31T06:56:03;15.40;99.90
28773;DHT22;15925;51.222;5.678;2022-12-31T06:58:31;15.40;99.90
28773;DHT22;15925;51.222;5.678;2022-12-31T07:01:46;15.40;99.90
28773;DHT22;15925;51.222;5.678;2022-12-31T07:03:45;15.40;99.90
28773;DHT22;15925;51.222;5.678;2022-12-31T07:06:24;15.40;99.90
28773;DHT22;15925;51.222;5.678;2022-12-31T07:08:55;15.40;99.90
28773;DHT22;15925;51.222;5.678;2022-12-31T07:11:26;15.40;99.90
28773;DHT22;15925;51.222;5.678;2022-12-31T07:14:07;15.40;99.90
28773;DHT22;15925;51.222;5.678;2022-12-31T07:22:03;15.50;99.90
28773;DHT22;15925;51.222;5.678;2022-12-31T07:24:29;15.40;99.90
28773;DHT22;15925;51.222;5.678;2022-12-31T07:29:28;15.40;99.90
28773;DHT22;15925;51.222;5.678;2022-12-31T07:34:42;15.50;99.90
28773;DHT22;15925;51.222;5.678;2022-12-31T07:37:24;15.50;99.90
28773;DHT22;15925;51.222;5.678;2022-12-31T07:42:24;15.50;99.90
28773;DHT22;15925;51.222;5.678;2022-12-31T07:47:24;15.50;99.90
28773;DHT22;15925;51.222;5.678;2022-12-31T07:49:50;15.60;99.90
28773;DHT22;15925;51.222;5.678;2022-12-31T07:52:16;15.60;99.90
28773;DHT22;15925;51.222;5.678;2022-12-31T07:54:42;15.60;99.90
28773;DHT22;15925;51.222;5.678;2022-12-31T07:57:11;15.60;99.90
28773;DHT22;15925;51.222;5.678;2022-12-31T07:59:46;15.60;99.90
28773;DHT22;15925;51.222;5.678;2022-12-31T08:10:01;15.60;99.90
28773;DHT22;15925;51.222;5.678;2022-12-31T08:12:30;15.60;99.90
28773;DHT22;15925;51.222;5.678;2022-12-31T08:14:56;15.60;99.90
28773;DHT22;15925;51.222;5.678;2022-12-31T08:17:22;15.50;99.90
28773;DHT22;15925;51.222;5.678;2022-12-31T08:19:48;15.60;99.90
28773;DHT22;15925;51.222;5.678;2022-12-31T08:27:51;15.60;99.90
28773;DHT22;15925;51.222;5.678;2022-12-31T08:30:21;15.60;99.90
28773;DHT22;15925;51.222;5.678;2022-12-31T08:32:57;15.60;99.90
28773;DHT22;15925;51.222;5.678;2022-12-31T08:40:49;15.70;99.90
28773;DHT22;15925;51.222;5.678;2022-12-31T08:46:00;15.70;99.90
28773;DHT22;15925;51.222;5.678;2022-12-31T08:48:40;15.70;99.90
28773;DHT22;15925;51.222;5.678;2022-12-31T08:51:41;15.70;99.90
28773;DHT22;15925;51.222;5.678;2022-12-31T08:54:00;15.80;99.90
28773;DHT22;15925;51.222;5.678;2022-12-31T08:56:31;15.80;99.90
28773;DHT22;15925;51.222;5.678;2022-12-31T08:59:07;15.80;99.90
28773;DHT22;15925;51.222;5.678;2022-12-31T09:01:43;15.80;99.90
28773;DHT22;15925;51.222;5.678;2022-12-31T09:06:59;15.80;99.90
28773;DHT22;15925;51.222;5.678;2022-12-31T09:14:39;15.90;99.90
28773;DHT22;15925;51.222;5.678;2022-12-31T09:19:50;15.90;99.90
28773;DHT22;15925;51.222;5.678;2022-12-31T09:22:16;15.80;99.90
28773;DHT22;15925;51.222;5.678;2022-12-31T09:24:42;15.80;99.90
28773;DHT22;15925;51.222;5.678;2022-12-31T09:29:46;15.80;99.90
28773;DHT22;15925;51.222;5.678;2022-12-31T09:37:41;16.00;99.90
28773;DHT22;15925;51.222;5.678;2022-12-31T09:42:49;16.00;99.90
28773;DHT22;15925;51.222;5.678;2022-12-31T09:50:21;16.10;99.90
28773;DHT22;15925;51.222;5.678;2022-12-31T09:58:01;16.20;99.90
28773;DHT22;15925;51.222;5.678;2022-12-31T10:03:15;16.20;99.90
28773;DHT22;15925;51.222;5.678;2022-12-31T10:11:02;16.30;99.90
28773;DHT22;15925;51.222;5.678;2022-12-31T10:18:45;16.30;99.90
28773;DHT22;15925;51.222;5.678;2022-12-31T10:36:27;16.50;99.90
28773;DHT22;15925;51.222;5.678;2022-12-31T10:41:31;16.50;99.90
28773;DHT22;15925;51.222;5.678;2022-12-31T11:22:55;16.50;99.90
28773;DHT22;15925;51.222;5.678;2022-12-31T11:42:54;16.50;99.90
28773;DHT22;15925;51.222;5.678;2022-12-31T11:48:14;16.30;99.90
28773;DHT22;15925;51.222;5.678;2022-12-31T11:50:50;16.30;99.90
28773;DHT22;15925;51.222;5.678;2022-12-31T11:56:25;16.20;99.90
28773;DHT22;15925;51.222;5.678;2022-12-31T11:58:32;16.20;99.90
28773;DHT22;15925;51.222;5.678;2022-12-31T12:01:09;16.10;99.90
28773;DHT22;15925;51.222;5.678;2022-12-31T12:03:36;16.00;99.90
28773;DHT22;15925;51.222;5.678;2022-12-31T12:06:10;16.00;99.90
28773;DHT22;15925;51.222;5.678;2022-12-31T12:08:38;15.90;99.90
28773;DHT22;15925;51.222;5.678;2022-12-31T12:11:09;15.90;99.90
28773;DHT22;15925;51.222;5.678;2022-12-31T12:13:39;15.90;99.90
28773;DHT22;15925;51.222;5.678;2022-12-31T12:16:05;15.90;99.90
28773;DHT22;15925;51.222;5.678;2022-12-31T12:21:05;15.80;99.90
28773;DHT22;15925;51.222;5.678;2022-12-31T12:23:30;15.80;99.90
28773;DHT22;15925;51.222;5.678;2022-12-31T12:25:57;15.90;99.90
28773;DHT22;15925;51.222;5.678;2022-12-31T12:28:24;15.90;99.90
28773;DHT22;15925;51.222;5.678;2022-12-31T12:30:57;15.90;99.90
28773;DHT22;15925;51.222;5.678;2022-12-31T12:33:23;15.90;99.90
28773;DHT22;15925;51.222;5.678;2022-12-31T12:35:49;15.90;99.90
28773;DHT22;15925;51.222;5.678;2022-12-31T12:38:16;16.00;99.90
28773;DHT22;15925;51.222;5.678;2022-12-31T12:40:51;16.00;99.90
28773;DHT22;15925;51.222;5.678;2022-12-31T12:43:24;16.00;99.90
28773;DHT22;15925;51.222;5.678;2022-12-31T12:45:51;16.00;99.90
28773;DHT22;15925;51.222;5.678;2022-12-31T12:50:50;16.00;99.90
28773;DHT22;15925;51.222;5.678;2022-12-31T12:55:48;16.10;99.90
28773;DHT22;15925;51.222;5.678;2022-12-31T13:01:09;16.10;99.90
28773;DHT22;15925;51.222;5.678;2022-12-31T13:16:46;16.10;99.90
28773;DHT22;15925;51.222;5.678;2022-12-31T13:21:59;16.00;99.90
28773;DHT22;15925;51.222;5.678;2022-12-31T13:24:29;16.00;99.90
28773;DHT22;15925;51.222;5.678;2022-12-31T13:29:25;15.90;99.90
28773;DHT22;15925;51.222;5.678;2022-12-31T13:31:52;15.90;99.90
28773;DHT22;15925;51.222;5.678;2022-12-31T13:34:26;15.90;99.90
28773;DHT22;15925;51.222;5.678;2022-12-31T13:36:53;15.90;99.90
28773;DHT22;15925;51.222;5.678;2022-12-31T13:39:26;15.80;99.90
28773;DHT22;15925;51.222;5.678;2022-12-31T13:45:10;15.80;99.90
28773;DHT22;15925;51.222;5.678;2022-12-31T13:47:32;15.80;99.90
28773;DHT22;15925;51.222;5.678;2022-12-31T13:52:46;15.70;99.90
28773;DHT22;15925;51.222;5.678;2022-12-31T13:55:19;15.80;99.90
28773;DHT22;15925;51.222;5.678;2022-12-31T14:06:04;15.80;99.90
28773;DHT22;15925;51.222;5.678;2022-12-31T14:08:32;15.80;99.90
28773;DHT22;15925;51.222;5.678;2022-12-31T14:11:22;15.80;99.90
28773;DHT22;15925;51.222;5.678;2022-12-31T14:16:38;15.80;99.90
28773;DHT22;15925;51.222;5.678;2022-12-31T14:22:20;15.80;99.90
28773;DHT22;15925;51.222;5.678;2022-12-31T14:27:08;15.80;99.90
28773;DHT22;15925;51.222;5.678;2022-12-31T14:32:50;15.70;99.90
28773;DHT22;15925;51.222;5.678;2022-12-31T14:45:26;15.70;99.90
28773;DHT22;15925;51.222;5.678;2022-12-31T14:47:54;15.60;99.90
28773;DHT22;15925;51.222;5.678;2022-12-31T14:50:22;15.60;99.90
28773;DHT22;15925;51.222;5.678;2022-12-31T14:52:51;15.60;99.90
28773;DHT22;15925;51.222;5.678;2022-12-31T14:57:43;15.60;99.90
28773;DHT22;15925;51.222;5.678;2022-12-31T15:00:23;15.60;99.90
28773;DHT22;15925;51.222;5.678;2022-12-31T15:02:50;15.50;99.90
28773;DHT22;15925;51.222;5.678;2022-12-31T15:05:20;15.50;99.90
28773;DHT22;15925;51.222;5.678;2022-12-31T15:10:18;15.50;99.90
28773;DHT22;15925;51.222;5.678;2022-12-31T15:12:55;15.50;99.90
28773;DHT22;15925;51.222;5.678;2022-12-31T15:20:51;15.40;99.90
28773;DHT22;15925;51.222;5.678;2022-12-31T15:23:22;15.40;99.90
28773;DHT22;15925;51.222;5.678;2022-12-31T15:25:54;15.40;99.90
28773;DHT22;15925;51.222;5.678;2022-12-31T15:28:34;15.40;99.90
28773;DHT22;15925;51.222;5.678;2022-12-31T15:31:02;15.30;99.90
28773;DHT22;15925;51.222;5.678;2022-12-31T15:35:57;15.30;99.90
28773;DHT22;15925;51.222;5.678;2022-12-31T15:38:38;15.30;99.90
28773;DHT22;15925;51.222;5.678;2022-12-31T15:44:05;15.20;99.90
28773;DHT22;15925;51.222;5.678;2022-12-31T15:46:36;15.20;99.90
28773;DHT22;15925;51.222;5.678;2022-12-31T15:49:03;15.20;99.90
28773;DHT22;15925;51.222;5.678;2022-12-31T15:51:32;15.20;99.90
28773;DHT22;15925;51.222;5.678;2022-12-31T15:54:01;15.20;99.90
28773;DHT22;15925;51.222;5.678;2022-12-31T15:56:38;15.20;99.90
28773;DHT22;15925;51.222;5.678;2022-12-31T15:59:09;15.20;99.90
28773;DHT22;15925;51.222;5.678;2022-12-31T16:01:36;15.20;99.90
28773;DHT22;15925;51.222;5.678;2022-12-31T16:04:05;15.20;99.90
28773;DHT22;15925;51.222;5.678;2022-12-31T16:06:32;15.20;99.90
28773;DHT22;15925;51.222;5.678;2022-12-31T16:09:02;15.20;99.90
28773;DHT22;15925;51.222;5.678;2022-12-31T16:11:28;15.20;99.90
28773;DHT22;15925;51.222;5.678;2022-12-31T16:13:55;15.20;99.90
28773;DHT22;15925;51.222;5.678;2022-12-31T16:16:25;15.20;99.90
28773;DHT22;15925;51.222;5.678;2022-12-31T16:18:51;15.10;99.90
28773;DHT22;15925;51.222;5.678;2022-12-31T16:23:57;15.20;99.90
28773;DHT22;15925;51.222;5.678;2022-12-31T16:26:27;15.10;99.90
28773;DHT22;15925;51.222;5.678;2022-12-31T16:28:55;15.10;99.90
28773;DHT22;15925;51.222;5.678;2022-12-31T16:31:24;15.10;99.90
28773;DHT22;15925;51.222;5.678;2022-12-31T16:33:51;15.00;99.90
28773;DHT22;15925;51.222;5.678;2022-12-31T16:36:26;15.10;99.90
28773;DHT22;15925;51.222;5.678;2022-12-31T16:38:52;15.00;99.90
28773;DHT22;15925;51.222;5.678;2022-12-31T16:41:23;15.00;99.90
28773;DHT22;15925;51.222;5.678;2022-12-31T16:43:49;15.00;99.90
28773;DHT22;15925;51.222;5.678;2022-12-31T16:46:19;15.00;99.90
28773;DHT22;15925;51.222;5.678;2022-12-31T16:49:33;15.00;99.90
28773;DHT22;15925;51.222;5.678;2022-12-31T16:51:33;15.00;99.90
28773;DHT22;15925;51.222;5.678;2022-12-31T16:54:01;15.00;99.90
28773;DHT22;15925;51.222;5.678;2022-12-31T16:56:31;14.90;99.90
28773;DHT22;15925;51.222;5.678;2022-12-31T16:59:04;15.00;99.90
28773;DHT22;15925;51.222;5.678;2022-12-31T17:01:32;14.90;99.90
28773;DHT22;15925;51.222;5.678;2022-12-31T17:03:59;15.00;99.90
28773;DHT22;15925;51.222;5.678;2022-12-31T17:06:25;15.00;99.90
28773;DHT22;15925;51.222;5.678;2022-12-31T17:09:08;15.00;99.90
28773;DHT22;15925;51.222;5.678;2022-12-31T17:11:35;14.90;99.90
28773;DHT22;15925;51.222;5.678;2022-12-31T17:16:36;14.90;99.90
28773;DHT22;15925;51.222;5.678;2022-12-31T17:19:02;14.90;99.90
28773;DHT22;15925;51.222;5.678;2022-12-31T17:21:29;14.80;99.90
28773;DHT22;15925;51.222;5.678;2022-12-31T17:23:59;14.80;99.90
28773;DHT22;15925;51.222;5.678;2022-12-31T17:26:27;14.90;99.90
28773;DHT22;15925;51.222;5.678;2022-12-31T17:28:54;14.80;99.90
28773;DHT22;15925;51.222;5.678;2022-12-31T17:31:31;14.80;99.90
28773;DHT22;15925;51.222;5.678;2022-12-31T17:36:39;14.80;99.90
28773;DHT22;15925;51.222;5.678;2022-12-31T17:39:15;14.80;99.90
28773;DHT22;15925;51.222;5.678;2022-12-31T17:41:43;14.80;99.90
28773;DHT22;15925;51.222;5.678;2022-12-31T17:44:10;14.80;99.90
28773;DHT22;15925;51.222;5.678;2022-12-31T17:46:39;14.80;99.90
28773;DHT22;15925;51.222;5.678;2022-12-31T17:49:07;14.80;99.90
28773;DHT22;15925;51.222;5.678;2022-12-31T17:51:35;14.80;99.90
28773;DHT22;15925;51.222;5.678;2022-12-31T17:54:05;14.70;99.90
28773;DHT22;15925;51.222;5.678;2022-12-31T17:56:34;14.70;99.90
28773;DHT22;15925;51.222;5.678;2022-12-31T17:59:00;14.70;99.90
28773;DHT22;15925;51.222;5.678;2022-12-31T18:01:29;14.70;99.90
28773;DHT22;15925;51.222;5.678;2022-12-31T18:03:55;14.70;99.90
28773;DHT22;15925;51.222;5.678;2022-12-31T18:06:21;14.70;99.90
28773;DHT22;15925;51.222;5.678;2022-12-31T18:08:47;14.70;99.90
28773;DHT22;15925;51.222;5.678;2022-12-31T18:11:20;14.60;99.90
28773;DHT22;15925;51.222;5.678;2022-12-31T18:13:46;14.70;99.90
28773;DHT22;15925;51.222;5.678;2022-12-31T18:16:15;14.70;99.90
28773;DHT22;15925;51.222;5.678;2022-12-31T18:18:41;14.70;99.90
28773;DHT22;15925;51.222;5.678;2022-12-31T18:21:12;14.70;99.90
28773;DHT22;15925;51.222;5.678;2022-12-31T18:23:42;14.70;99.90
28773;DHT22;15925;51.222;5.678;2022-12-31T18:26:15;14.70;99.90
28773;DHT22;15925;51.222;5.678;2022-12-31T18:28:41;14.70;99.90
28773;DHT22;15925;51.222;5.678;2022-12-31T18:31:10;14.70;99.90
28773;DHT22;15925;51.222;5.678;2022-12-31T18:33:37;14.60;99.90
28773;DHT22;15925;51.222;5.678;2022-12-31T18:36:04;14.60;99.90
28773;DHT22;15925;51.222;5.678;2022-12-31T18:38:30;14.60;99.90
28773;DHT22;15925;51.222;5.678;2022-12-31T18:40:56;14.60;99.90
28773;DHT22;15925;51.222;5.678;2022-12-31T18:43:23;14.60;99.90
28773;DHT22;15925;51.222;5.678;2022-12-31T18:45:49;14.60;99.90
28773;DHT22;15925;51.222;5.678;2022-12-31T18:48:16;14.60;99.90
28773;DHT22;15925;51.222;5.678;2022-12-31T18:50:41;14.60;99.90
28773;DHT22;15925;51.222;5.678;2022-12-31T18:53:11;14.60;99.90
28773;DHT22;15925;51.222;5.678;2022-12-31T18:55:39;14.50;99.90
28773;DHT22;15925;51.222;5.678;2022-12-31T18:58:06;14.60;99.90
28773;DHT22;15925;51.222;5.678;2022-12-31T19:00:32;14.60;99.90
28773;DHT22;15925;51.222;5.678;2022-12-31T19:02:58;14.50;99.90
28773;DHT22;15925;51.222;5.678;2022-12-31T19:05:25;14.50;99.90
28773;DHT22;15925;51.222;5.678;2022-12-31T19:07:50;14.50;99.90
28773;DHT22;15925;51.222;5.678;2022-12-31T19:10:16;14.50;99.90
28773;DHT22;15925;51.222;5.678;2022-12-31T19:12:42;14.60;99.90
28773;DHT22;15925;51.222;5.678;2022-12-31T19:17:49;14.60;99.90
28773;DHT22;15925;51.222;5.678;2022-12-31T19:20:17;14.60;99.90
28773;DHT22;15925;51.222;5.678;2022-12-31T19:22:43;14.60;99.90
28773;DHT22;15925;51.222;5.678;2022-12-31T19:25:14;14.60;99.90
28773;DHT22;15925;51.222;5.678;2022-12-31T19:27:41;14.50;99.90
28773;DHT22;15925;51.222;5.678;2022-12-31T19:30:10;14.60;99.90
28773;DHT22;15925;51.222;5.678;2022-12-31T19:32:38;14.70;99.90
28773;DHT22;15925;51.222;5.678;2022-12-31T19:35:04;14.70;99.90
28773;DHT22;15925;51.222;5.678;2022-12-31T19:37:30;14.70;99.90
28773;DHT22;15925;51.222;5.678;2022-12-31T19:39:55;14.70;99.90
28773;DHT22;15925;51.222;5.678;2022-12-31T19:42:21;14.70;99.90
28773;DHT22;15925;51.222;5.678;2022-12-31T19:44:47;14.70;99.90
28773;DHT22;15925;51.222;5.678;2022-12-31T19:47:15;14.70;99.90
28773;DHT22;15925;51.222;5.678;2022-12-31T19:49:41;14.70;99.90
28773;DHT22;15925;51.222;5.678;2022-12-31T19:52:07;14.80;99.90
28773;DHT22;15925;51.222;5.678;2022-12-31T19:54:33;14.80;99.90
28773;DHT22;15925;51.222;5.678;2022-12-31T19:56:58;14.90;99.90
28773;DHT22;15925;51.222;5.678;2022-12-31T19:59:24;14.90;99.90
28773;DHT22;15925;51.222;5.678;2022-12-31T20:01:50;14.90;99.90
28773;DHT22;15925;51.222;5.678;2022-12-31T20:04:16;14.90;99.90
28773;DHT22;15925;51.222;5.678;2022-12-31T20:06:42;14.90;99.90
28773;DHT22;15925;51.222;5.678;2022-12-31T20:09:10;15.00;99.90
28773;DHT22;15925;51.222;5.678;2022-12-31T20:11:35;15.00;99.90
28773;DHT22;15925;51.222;5.678;2022-12-31T20:14:01;15.00;99.90